sensor_id;sensor_type;location;lat;lon;timestamp;P1;durP1;ratioP1;P2;durP2;ratioP2
48873;SDS011;35220;46.204;5.220;2022-10-31T00:04:58;20.87;;;5.60;;
48873;SDS011;35220;46.204;5.220;2022-10-31T00:09:58;16.57;;;5.00;;
48873;SDS011;35220;46.204;5.220;2022-10-31T00:14:58;13.97;;;4.73;;
48873;SDS011;35220;46.204;5.220;2022-10-31T00:19:59;10.75;;;4.65;;
48873;SDS011;35220;46.204;5.220;2022-10-31T00:24:59;10.17;;;4.50;;
48873;SDS011;35220;46.204;5.220;2022-10-31T00:29:59;10.60;;;4.87;;
48873;SDS011;35220;46.204;5.220;2022-10-31T00:35:00;12.68;;;4.40;;
48873;SDS011;35220;46.204;5.220;2022-10-31T00:40:00;15.40;;;5.10;;
48873;SDS011;35220;46.204;5.220;2022-10-31T00:45:01;11.40;;;5.57;;
48873;SDS011;35220;46.204;5.220;2022-10-31T00:50:02;12.43;;;4.73;;
48873;SDS011;35220;46.204;5.220;2022-10-31T00:55:03;9.77;;;4.13;;
48873;SDS011;35220;46.204;5.220;2022-10-31T01:00:04;14.85;;;5.40;;
48873;SDS011;35220;46.204;5.220;2022-10-31T01:05:05;11.10;;;4.93;;
48873;SDS011;35220;46.204;5.220;2022-10-31T01:10:05;12.25;;;4.70;;
48873;SDS011;35220;46.204;5.220;2022-10-31T01:15:07;11.00;;;5.32;;
48873;SDS011;35220;46.204;5.220;2022-10-31T01:20:09;11.60;;;4.70;;
48873;SDS011;35220;46.204;5.220;2022-10-31T01:25:12;10.98;;;5.03;;
48873;SDS011;35220;46.204;5.220;2022-10-31T01:30:12;15.73;;;4.72;;
48873;SDS011;35220;46.204;5.220;2022-10-31T01:35:13;11.77;;;4.53;;
48873;SDS011;35220;46.204;5.220;2022-10-31T01:40:13;14.23;;;5.05;;
48873;SDS011;35220;46.204;5.220;2022-10-31T01:45:14;12.88;;;4.93;;
48873;SDS011;35220;46.204;5.220;2022-10-31T01:50:20;11.55;;;4.88;;
48873;SDS011;35220;46.204;5.220;2022-10-31T01:55:28;16.15;;;5.07;;
48873;SDS011;35220;46.204;5.220;2022-10-31T02:00:32;13.60;;;4.85;;
48873;SDS011;35220;46.204;5.220;2022-10-31T02:05:33;11.07;;;5.05;;
48873;SDS011;35220;46.204;5.220;2022-10-31T02:10:34;14.82;;;4.45;;
48873;SDS011;35220;46.204;5.220;2022-10-31T02:15:36;9.68;;;4.95;;
48873;SDS011;35220;46.204;5.220;2022-10-31T02:20:44;15.05;;;4.97;;
48873;SDS011;35220;46.204;5.220;2022-10-31T02:36:36;11.55;;;4.93;;
48873;SDS011;35220;46.204;5.220;2022-10-31T02:41:59;15.10;;;5.47;;
48873;SDS011;35220;46.204;5.220;2022-10-31T02:47:03;12.02;;;5.40;;
48873;SDS011;35220;46.204;5.220;2022-10-31T02:52:18;13.20;;;5.60;;
48873;SDS011;35220;46.204;5.220;2022-10-31T02:57:23;13.23;;;5.40;;
48873;SDS011;35220;46.204;5.220;2022-10-31T03:07:42;14.97;;;5.37;;
48873;SDS011;35220;46.204;5.220;2022-10-31T03:18:21;9.90;;;4.72;;
48873;SDS011;35220;46.204;5.220;2022-10-31T03:23:28;12.52;;;5.22;;
48873;SDS011;35220;46.204;5.220;2022-10-31T03:28:31;12.18;;;5.45;;
48873;SDS011;35220;46.204;5.220;2022-10-31T03:33:36;15.38;;;5.63;;
48873;SDS011;35220;46.204;5.220;2022-10-31T03:38:39;17.05;;;7.13;;
48873;SDS011;35220;46.204;5.220;2022-10-31T03:43:48;10.50;;;4.95;;
48873;SDS011;35220;46.204;5.220;2022-10-31T03:48:55;15.13;;;5.78;;
48873;SDS011;35220;46.204;5.220;2022-10-31T03:54:05;14.70;;;5.90;;
48873;SDS011;35220;46.204;5.220;2022-10-31T03:59:14;21.95;;;6.13;;
48873;SDS011;35220;46.204;5.220;2022-10-31T04:04:20;13.65;;;5.45;;
48873;SDS011;35220;46.204;5.220;2022-10-31T04:09:21;11.27;;;4.78;;
48873;SDS011;35220;46.204;5.220;2022-10-31T04:14:24;13.75;;;5.43;;
48873;SDS011;35220;46.204;5.220;2022-10-31T04:19:27;13.80;;;4.97;;
48873;SDS011;35220;46.204;5.220;2022-10-31T04:24:28;11.53;;;5.50;;
48873;SDS011;35220;46.204;5.220;2022-10-31T04:29:28;14.65;;;6.28;;
48873;SDS011;35220;46.204;5.220;2022-10-31T04:34:28;12.27;;;4.93;;
48873;SDS011;35220;46.204;5.220;2022-10-31T04:39:29;16.53;;;5.97;;
48873;SDS011;35220;46.204;5.220;2022-10-31T04:44:29;14.27;;;5.25;;
48873;SDS011;35220;46.204;5.220;2022-10-31T04:49:30;18.27;;;6.10;;
48873;SDS011;35220;46.204;5.220;2022-10-31T04:54:30;17.07;;;5.53;;
48873;SDS011;35220;46.204;5.220;2022-10-31T04:59:30;13.33;;;5.10;;
48873;SDS011;35220;46.204;5.220;2022-10-31T05:04:31;11.93;;;4.57;;
48873;SDS011;35220;46.204;5.220;2022-10-31T05:09:31;15.77;;;5.27;;
48873;SDS011;35220;46.204;5.220;2022-10-31T05:14:31;10.80;;;4.80;;
48873;SDS011;35220;46.204;5.220;2022-10-31T05:19:32;14.40;;;5.80;;
48873;SDS011;35220;46.204;5.220;2022-10-31T05:24:32;10.80;;;5.23;;
48873;SDS011;35220;46.204;5.220;2022-10-31T05:29:32;16.97;;;5.47;;
48873;SDS011;35220;46.204;5.220;2022-10-31T05:34:33;11.95;;;5.43;;
48873;SDS011;35220;46.204;5.220;2022-10-31T05:39:33;11.53;;;4.60;;
48873;SDS011;35220;46.204;5.220;2022-10-31T05:44:34;11.57;;;4.67;;
48873;SDS011;35220;46.204;5.220;2022-10-31T05:49:34;9.17;;;4.80;;
48873;SDS011;35220;46.204;5.220;2022-10-31T05:54:34;15.03;;;6.10;;
48873;SDS011;35220;46.204;5.220;2022-10-31T05:59:35;13.80;;;5.30;;
48873;SDS011;35220;46.204;5.220;2022-10-31T06:04:38;12.87;;;4.83;;
48873;SDS011;35220;46.204;5.220;2022-10-31T06:09:39;11.27;;;4.20;;
48873;SDS011;35220;46.204;5.220;2022-10-31T06:14:39;13.73;;;5.70;;
48873;SDS011;35220;46.204;5.220;2022-10-31T06:19:39;10.33;;;4.67;;
48873;SDS011;35220;46.204;5.220;2022-10-31T06:24:40;16.60;;;4.73;;
48873;SDS011;35220;46.204;5.220;2022-10-31T06:29:40;14.63;;;5.30;;
48873;SDS011;35220;46.204;5.220;2022-10-31T06:34:40;19.80;;;6.05;;
48873;SDS011;35220;46.204;5.220;2022-10-31T06:39:41;11.45;;;4.90;;
48873;SDS011;35220;46.204;5.220;2022-10-31T06:44:42;9.97;;;5.00;;
48873;SDS011;35220;46.204;5.220;2022-10-31T06:49:42;10.50;;;4.30;;
48873;SDS011;35220;46.204;5.220;2022-10-31T06:54:42;12.07;;;4.70;;
48873;SDS011;35220;46.204;5.220;2022-10-31T06:59:43;10.07;;;4.50;;
48873;SDS011;35220;46.204;5.220;2022-10-31T07:04:43;13.20;;;4.93;;
48873;SDS011;35220;46.204;5.220;2022-10-31T07:09:44;14.60;;;4.90;;
48873;SDS011;35220;46.204;5.220;2022-10-31T07:14:44;11.50;;;5.00;;
48873;SDS011;35220;46.204;5.220;2022-10-31T07:19:44;11.90;;;5.40;;
48873;SDS011;35220;46.204;5.220;2022-10-31T07:24:45;8.32;;;4.45;;
48873;SDS011;35220;46.204;5.220;2022-10-31T07:29:45;13.03;;;5.07;;
48873;SDS011;35220;46.204;5.220;2022-10-31T07:34:46;13.43;;;4.47;;
48873;SDS011;35220;46.204;5.220;2022-10-31T07:39:46;17.63;;;5.20;;
48873;SDS011;35220;46.204;5.220;2022-10-31T07:44:46;14.60;;;4.88;;
48873;SDS011;35220;46.204;5.220;2022-10-31T07:49:47;14.70;;;5.60;;
48873;SDS011;35220;46.204;5.220;2022-10-31T07:54:47;13.53;;;4.87;;
48873;SDS011;35220;46.204;5.220;2022-10-31T07:59:47;15.70;;;5.90;;
48873;SDS011;35220;46.204;5.220;2022-10-31T08:04:48;16.02;;;5.38;;
48873;SDS011;35220;46.204;5.220;2022-10-31T08:09:49;13.82;;;5.60;;
48873;SDS011;35220;46.204;5.220;2022-10-31T08:14:49;13.23;;;4.90;;
48873;SDS011;35220;46.204;5.220;2022-10-31T08:19:50;13.75;;;5.32;;
48873;SDS011;35220;46.204;5.220;2022-10-31T08:24:50;16.37;;;5.50;;
48873;SDS011;35220;46.204;5.220;2022-10-31T08:29:50;14.77;;;4.67;;
48873;SDS011;35220;46.204;5.220;2022-10-31T08:34:51;12.87;;;5.60;;
48873;SDS011;35220;46.204;5.220;2022-10-31T08:39:51;11.20;;;4.30;;
48873;SDS011;35220;46.204;5.220;2022-10-31T08:44:52;18.77;;;5.43;;
48873;SDS011;35220;46.204;5.220;2022-10-31T08:49:52;10.07;;;3.37;;
48873;SDS011;35220;46.204;5.220;2022-10-31T08:54:52;12.70;;;4.13;;
48873;SDS011;35220;46.204;5.220;2022-10-31T08:59:53;14.80;;;4.43;;
48873;SDS011;35220;46.204;5.220;2022-10-31T09:04:53;11.10;;;4.10;;
48873;SDS011;35220;46.204;5.220;2022-10-31T09:09:53;18.33;;;4.60;;
48873;SDS011;35220;46.204;5.220;2022-10-31T09:14:55;14.32;;;5.65;;
48873;SDS011;35220;46.204;5.220;2022-10-31T09:19:56;16.03;;;5.27;;
48873;SDS011;35220;46.204;5.220;2022-10-31T09:24:56;8.10;;;4.40;;
48873;SDS011;35220;46.204;5.220;2022-10-31T09:29:56;10.97;;;4.87;;
48873;SDS011;35220;46.204;5.220;2022-10-31T09:34:57;15.57;;;5.17;;
48873;SDS011;35220;46.204;5.220;2022-10-31T09:39:57;15.53;;;5.40;;
48873;SDS011;35220;46.204;5.220;2022-10-31T09:55:18;10.98;;;4.90;;
48873;SDS011;35220;46.204;5.220;2022-10-31T10:00:25;16.20;;;5.60;;
48873;SDS011;35220;46.204;5.220;2022-10-31T10:05:28;14.55;;;5.97;;
48873;SDS011;35220;46.204;5.220;2022-10-31T10:10:50;13.43;;;4.88;;
48873;SDS011;35220;46.204;5.220;2022-10-31T10:26:54;9.77;;;4.32;;
48873;SDS011;35220;46.204;5.220;2022-10-31T10:32:09;9.82;;;4.35;;
48873;SDS011;35220;46.204;5.220;2022-10-31T10:37:56;11.43;;;4.90;;
48873;SDS011;35220;46.204;5.220;2022-10-31T10:42:39;15.02;;;5.13;;
48873;SDS011;35220;46.204;5.220;2022-10-31T10:48:02;12.40;;;4.65;;
48873;SDS011;35220;46.204;5.220;2022-10-31T10:53:18;14.40;;;4.72;;
48873;SDS011;35220;46.204;5.220;2022-10-31T10:58:31;12.38;;;4.57;;
48873;SDS011;35220;46.204;5.220;2022-10-31T11:03:32;9.97;;;4.10;;
48873;SDS011;35220;46.204;5.220;2022-10-31T11:08:35;9.73;;;4.50;;
48873;SDS011;35220;46.204;5.220;2022-10-31T11:13:36;14.35;;;5.15;;
48873;SDS011;35220;46.204;5.220;2022-10-31T11:18:38;13.98;;;4.47;;
48873;SDS011;35220;46.204;5.220;2022-10-31T11:23:41;10.57;;;4.82;;
48873;SDS011;35220;46.204;5.220;2022-10-31T11:28:41;10.20;;;4.03;;
48873;SDS011;35220;46.204;5.220;2022-10-31T11:33:49;15.93;;;4.63;;
48873;SDS011;35220;46.204;5.220;2022-10-31T11:38:56;12.77;;;4.72;;
48873;SDS011;35220;46.204;5.220;2022-10-31T11:44:02;12.10;;;3.90;;
48873;SDS011;35220;46.204;5.220;2022-10-31T11:49:05;11.73;;;4.70;;
48873;SDS011;35220;46.204;5.220;2022-10-31T11:54:24;9.52;;;4.80;;
48873;SDS011;35220;46.204;5.220;2022-10-31T11:59:29;13.07;;;4.30;;
48873;SDS011;35220;46.204;5.220;2022-10-31T12:04:33;14.27;;;4.50;;
48873;SDS011;35220;46.204;5.220;2022-10-31T12:09:47;13.93;;;4.65;;
48873;SDS011;35220;46.204;5.220;2022-10-31T12:20:03;14.25;;;4.13;;
48873;SDS011;35220;46.204;5.220;2022-10-31T12:25:16;9.60;;;4.20;;
48873;SDS011;35220;46.204;5.220;2022-10-31T12:30:20;10.57;;;3.95;;
48873;SDS011;35220;46.204;5.220;2022-10-31T12:46:06;10.02;;;3.58;;
48873;SDS011;35220;46.204;5.220;2022-10-31T13:02:10;8.00;;;3.65;;
48873;SDS011;35220;46.204;5.220;2022-10-31T13:07:33;8.23;;;3.67;;
48873;SDS011;35220;46.204;5.220;2022-10-31T13:12:35;7.68;;;3.03;;
48873;SDS011;35220;46.204;5.220;2022-10-31T13:17:39;7.28;;;2.88;;
48873;SDS011;35220;46.204;5.220;2022-10-31T13:22:45;8.27;;;3.70;;
48873;SDS011;35220;46.204;5.220;2022-10-31T13:28:50;8.60;;;2.90;;
48873;SDS011;35220;46.204;5.220;2022-10-31T13:33:34;12.25;;;3.20;;
48873;SDS011;35220;46.204;5.220;2022-10-31T13:48:57;8.10;;;3.33;;
48873;SDS011;35220;46.204;5.220;2022-10-31T13:53:58;9.87;;;2.93;;
48873;SDS011;35220;46.204;5.220;2022-10-31T13:59:11;12.43;;;3.35;;
48873;SDS011;35220;46.204;5.220;2022-10-31T14:04:26;9.38;;;2.83;;
48873;SDS011;35220;46.204;5.220;2022-10-31T14:14:41;8.73;;;3.00;;
48873;SDS011;35220;46.204;5.220;2022-10-31T14:19:56;6.95;;;2.83;;
48873;SDS011;35220;46.204;5.220;2022-10-31T14:25:24;8.40;;;2.88;;
48873;SDS011;35220;46.204;5.220;2022-10-31T14:30:31;9.52;;;3.00;;
48873;SDS011;35220;46.204;5.220;2022-10-31T14:51:45;7.40;;;3.05;;
48873;SDS011;35220;46.204;5.220;2022-10-31T14:56:55;7.00;;;2.60;;
48873;SDS011;35220;46.204;5.220;2022-10-31T15:02:10;8.57;;;3.10;;
48873;SDS011;35220;46.204;5.220;2022-10-31T15:07:19;8.63;;;2.67;;
48873;SDS011;35220;46.204;5.220;2022-10-31T15:12:24;7.80;;;3.72;;
48873;SDS011;35220;46.204;5.220;2022-10-31T15:17:26;9.27;;;2.85;;
48873;SDS011;35220;46.204;5.220;2022-10-31T15:22:27;7.85;;;2.95;;
48873;SDS011;35220;46.204;5.220;2022-10-31T15:27:29;8.70;;;3.10;;
48873;SDS011;35220;46.204;5.220;2022-10-31T15:32:31;10.00;;;2.70;;
48873;SDS011;35220;46.204;5.220;2022-10-31T15:37:32;8.98;;;2.70;;
48873;SDS011;35220;46.204;5.220;2022-10-31T15:42:34;6.00;;;2.87;;
48873;SDS011;35220;46.204;5.220;2022-10-31T15:47:44;7.35;;;3.20;;
48873;SDS011;35220;46.204;5.220;2022-10-31T15:52:48;12.35;;;3.05;;
48873;SDS011;35220;46.204;5.220;2022-10-31T15:58:03;7.32;;;2.83;;
48873;SDS011;35220;46.204;5.220;2022-10-31T16:13:31;10.02;;;2.85;;
48873;SDS011;35220;46.204;5.220;2022-10-31T16:18:35;7.63;;;2.83;;
48873;SDS011;35220;46.204;5.220;2022-10-31T16:23:38;7.72;;;3.05;;
48873;SDS011;35220;46.204;5.220;2022-10-31T16:28:53;8.73;;;2.63;;
48873;SDS011;35220;46.204;5.220;2022-10-31T16:34:01;6.97;;;3.15;;
48873;SDS011;35220;46.204;5.220;2022-10-31T16:39:11;6.75;;;2.95;;
48873;SDS011;35220;46.204;5.220;2022-10-31T16:44:24;7.45;;;3.30;;
48873;SDS011;35220;46.204;5.220;2022-10-31T16:49:25;7.28;;;3.00;;
48873;SDS011;35220;46.204;5.220;2022-10-31T16:54:26;9.23;;;2.70;;
48873;SDS011;35220;46.204;5.220;2022-10-31T16:59:28;10.38;;;3.58;;
48873;SDS011;35220;46.204;5.220;2022-10-31T17:04:30;12.60;;;3.10;;
48873;SDS011;35220;46.204;5.220;2022-10-31T17:09:30;11.73;;;3.77;;
48873;SDS011;35220;46.204;5.220;2022-10-31T17:14:31;9.33;;;3.30;;
48873;SDS011;35220;46.204;5.220;2022-10-31T17:19:32;6.88;;;2.97;;
48873;SDS011;35220;46.204;5.220;2022-10-31T17:24:33;10.10;;;2.88;;
48873;SDS011;35220;46.204;5.220;2022-10-31T17:29:34;11.93;;;3.40;;
48873;SDS011;35220;46.204;5.220;2022-10-31T17:34:35;9.57;;;2.95;;
48873;SDS011;35220;46.204;5.220;2022-10-31T17:39:35;6.93;;;2.80;;
48873;SDS011;35220;46.204;5.220;2022-10-31T17:44:35;14.07;;;3.47;;
48873;SDS011;35220;46.204;5.220;2022-10-31T17:49:36;9.60;;;3.67;;
48873;SDS011;35220;46.204;5.220;2022-10-31T17:54:36;11.50;;;3.28;;
48873;SDS011;35220;46.204;5.220;2022-10-31T17:59:37;9.43;;;3.70;;
48873;SDS011;35220;46.204;5.220;2022-10-31T18:04:37;9.53;;;3.40;;
48873;SDS011;35220;46.204;5.220;2022-10-31T18:09:39;8.77;;;3.60;;
48873;SDS011;35220;46.204;5.220;2022-10-31T18:14:40;10.50;;;3.37;;
48873;SDS011;35220;46.204;5.220;2022-10-31T18:19:41;8.90;;;3.22;;
48873;SDS011;35220;46.204;5.220;2022-10-31T18:24:41;11.07;;;3.00;;
48873;SDS011;35220;46.204;5.220;2022-10-31T18:29:41;10.50;;;3.45;;
48873;SDS011;35220;46.204;5.220;2022-10-31T18:34:42;9.25;;;3.03;;
48873;SDS011;35220;46.204;5.220;2022-10-31T18:39:42;12.98;;;2.88;;
48873;SDS011;35220;46.204;5.220;2022-10-31T18:44:43;15.15;;;4.40;;
48873;SDS011;35220;46.204;5.220;2022-10-31T18:49:43;11.13;;;3.47;;
48873;SDS011;35220;46.204;5.220;2022-10-31T18:54:44;7.45;;;3.03;;
48873;SDS011;35220;46.204;5.220;2022-10-31T18:59:44;8.73;;;2.95;;
48873;SDS011;35220;46.204;5.220;2022-10-31T19:04:45;10.27;;;3.57;;
48873;SDS011;35220;46.204;5.220;2022-10-31T19:09:45;9.73;;;2.88;;
48873;SDS011;35220;46.204;5.220;2022-10-31T19:14:45;7.73;;;3.23;;
48873;SDS011;35220;46.204;5.220;2022-10-31T19:19:47;10.98;;;3.88;;
48873;SDS011;35220;46.204;5.220;2022-10-31T19:24:48;10.70;;;3.70;;
48873;SDS011;35220;46.204;5.220;2022-10-31T19:29:48;9.65;;;3.42;;
48873;SDS011;35220;46.204;5.220;2022-10-31T19:34:49;12.00;;;3.03;;
48873;SDS011;35220;46.204;5.220;2022-10-31T19:39:49;8.90;;;3.30;;
48873;SDS011;35220;46.204;5.220;2022-10-31T19:44:49;10.85;;;3.40;;
48873;SDS011;35220;46.204;5.220;2022-10-31T19:49:50;11.00;;;3.43;;
48873;SDS011;35220;46.204;5.220;2022-10-31T19:54:50;12.43;;;3.87;;
48873;SDS011;35220;46.204;5.220;2022-10-31T19:59:50;11.00;;;2.97;;
48873;SDS011;35220;46.204;5.220;2022-10-31T20:04:51;15.33;;;3.60;;
48873;SDS011;35220;46.204;5.220;2022-10-31T20:09:51;8.60;;;3.73;;
48873;SDS011;35220;46.204;5.220;2022-10-31T20:14:52;11.30;;;3.33;;
48873;SDS011;35220;46.204;5.220;2022-10-31T20:19:52;7.40;;;2.80;;
48873;SDS011;35220;46.204;5.220;2022-10-31T20:24:52;9.77;;;3.60;;
48873;SDS011;35220;46.204;5.220;2022-10-31T20:29:54;11.38;;;3.85;;
48873;SDS011;35220;46.204;5.220;2022-10-31T20:34:54;10.93;;;3.30;;
48873;SDS011;35220;46.204;5.220;2022-10-31T20:39:55;9.23;;;3.30;;
48873;SDS011;35220;46.204;5.220;2022-10-31T20:44:55;12.23;;;4.87;;
48873;SDS011;35220;46.204;5.220;2022-10-31T20:49:55;10.68;;;4.40;;
48873;SDS011;35220;46.204;5.220;2022-10-31T20:54:56;10.60;;;3.43;;
48873;SDS011;35220;46.204;5.220;2022-10-31T20:59:56;11.40;;;3.90;;
48873;SDS011;35220;46.204;5.220;2022-10-31T21:04:56;13.05;;;4.25;;
48873;SDS011;35220;46.204;5.220;2022-10-31T21:09:57;11.30;;;3.88;;
48873;SDS011;35220;46.204;5.220;2022-10-31T21:14:57;9.53;;;3.33;;
48873;SDS011;35220;46.204;5.220;2022-10-31T21:19:58;11.63;;;3.15;;
48873;SDS011;35220;46.204;5.220;2022-10-31T21:24:58;11.63;;;3.20;;
48873;SDS011;35220;46.204;5.220;2022-10-31T21:29:59;7.95;;;3.40;;
48873;SDS011;35220;46.204;5.220;2022-10-31T21:34:59;13.48;;;4.15;;
48873;SDS011;35220;46.204;5.220;2022-10-31T21:40:00;9.20;;;3.30;;
48873;SDS011;35220;46.204;5.220;2022-10-31T21:45:00;10.30;;;3.67;;
48873;SDS011;35220;46.204;5.220;2022-10-31T21:50:00;13.07;;;3.73;;
48873;SDS011;35220;46.204;5.220;2022-10-31T21:55:01;14.02;;;4.30;;
48873;SDS011;35220;46.204;5.220;2022-10-31T22:00:03;9.82;;;3.72;;
48873;SDS011;35220;46.204;5.220;2022-10-31T22:05:06;11.20;;;3.72;;
48873;SDS011;35220;46.204;5.220;2022-10-31T22:10:06;14.90;;;3.80;;
48873;SDS011;35220;46.204;5.220;2022-10-31T22:15:07;9.70;;;3.65;;
48873;SDS011;35220;46.204;5.220;2022-10-31T22:20:11;11.23;;;4.65;;
48873;SDS011;35220;46.204;5.220;2022-10-31T22:25:12;9.40;;;3.57;;
48873;SDS011;35220;46.204;5.220;2022-10-31T22:30:12;13.13;;;3.90;;
48873;SDS011;35220;46.204;5.220;2022-10-31T22:35:13;15.32;;;4.93;;
48873;SDS011;35220;46.204;5.220;2022-10-31T22:40:13;15.85;;;4.97;;
48873;SDS011;35220;46.204;5.220;2022-10-31T22:45:13;18.40;;;5.03;;
48873;SDS011;35220;46.204;5.220;2022-10-31T22:50:15;8.57;;;3.92;;
48873;SDS011;35220;46.204;5.220;2022-10-31T22:55:21;10.20;;;3.60;;
48873;SDS011;35220;46.204;5.220;2022-10-31T23:00:24;9.77;;;4.63;;
48873;SDS011;35220;46.204;5.220;2022-10-31T23:05:24;15.70;;;3.80;;
48873;SDS011;35220;46.204;5.220;2022-10-31T23:10:25;10.52;;;4.72;;
48873;SDS011;35220;46.204;5.220;2022-10-31T23:15:35;15.02;;;4.38;;
48873;SDS011;35220;46.204;5.220;2022-10-31T23:20:36;9.30;;;4.10;;
48873;SDS011;35220;46.204;5.220;2022-10-31T23:25:37;11.07;;;4.05;;
48873;SDS011;35220;46.204;5.220;2022-10-31T23:30:56;9.23;;;4.13;;
48873;SDS011;35220;46.204;5.220;2022-10-31T23:35:56;17.27;;;5.80;;
48873;SDS011;35220;46.204;5.220;2022-10-31T23:40:57;13.53;;;4.53;;
48873;SDS011;35220;46.204;5.220;2022-10-31T23:45:57;14.13;;;4.37;;
48873;SDS011;35220;46.204;5.220;2022-10-31T23:50:57;10.57;;;4.20;;
48873;SDS011;35220;46.204;5.220;2022-10-31T23:55:58;12.13;;;4.47;;
